AirNav   Air Wisconsin Up To $57,000 Bonus
 
 1379 users online  

09OK Ragtime Aerodrome
Collinsville, Oklahoma, USA

GOING TO COLLINSVILLE?


FAA INFORMATION EFFECTIVE 01 DECEMBER 2022

Location

FAA Identifier: 09OK
Lat/Long: 36-21-16.3400N 095-51-49.9800W
36-21.272333N 095-51.833000W
36.3545389,-95.8638833
(estimated)
Elevation: 700 ft. / 213 m (estimated)
Variation: 06E (1990)
From city: 1 mile SW of COLLINSVILLE, OK
Time zone: UTC -6 (UTC -5 during Daylight Saving Time)
Zip code: 74021

Airport Operations

Airport use: Private use. Permission required prior to landing
Activation date: 05/1994
Control tower: no
ARTCC: KANSAS CITY CENTER
FSS: MC ALESTER FLIGHT SERVICE STATION
Attendance: UNATNDD
Segmented circle: no

Airport Communications

WX ASOS at TUL (9 nm S): PHONE 918-831-6772
WX AWOS-3 at OWP (18 nm SW): 118.325 (918-246-2635)
WX AWOS-3P at GCM (19 nm E): 119.925 (918-343-0184)
WX ASOS at RVS (20 nm S): 126.5 (918-299-0740)

Nearby radio navigation aids

VOR radial/distance  VOR name  Freq  Var
TULr331/10.2TULSA VORTAC114.4008E
BVOr158/29.7BARTLESVILLE VOR/DME117.9008E
OKMr352/39.7OKMULGEE VOR/DME114.9008E

Airport Services

Runway Information

Runway 1/19

Dimensions: 2500 x 50 ft. / 762 x 15 m
Surface: turf
RUNWAY 1  RUNWAY 19
Traffic pattern: leftleft
Obstructions: 35 ft. pline, 400 ft. from runway4 ft. fence, 150 ft. from runway

Airport Ownership and Management from official FAA records

Ownership: Privately-owned
Owner: KEN HOWARD
13667 N 97TH E AVE
COLLINSVILLE, OK 74021
Phone (918) 724-9965
Manager: KEN HOWARD
13667 N 97TH E AVE
COLLINSVILLE, OK 74021
Phone (918) 724-9965
MANAGER: JOEL HOWARD 13607 N 97TH E AVE COLLINSVILLE, OK 74021

Airport Operational Statistics

Aircraft based on the field: 3
Single engine airplanes: 3
    

Additional Remarks

FOR CD CTC TULSA APCH AT 918-831-6714/6720.

Instrument Procedures

There are no published instrument procedures at 09OK.

Some nearby airports with instrument procedures:

KTUL - Tulsa International Airport (9 nm S)
KOWP - William R Pogue Municipal Airport (18 nm SW)
KGCM - Claremore Regional Airport (19 nm E)
KRVS - Tulsa Riverside Airport (20 nm S)
KBVO - Bartlesville Municipal Airport (26 nm N)
 
Loc | Ops | Rwys | IFR | FBO | Links
Com | Nav | Svcs | Stats | Notes
Area around 09OK (Ragtime Aerodrome)
 
Road maps at: MapQuest Bing Google
 
Aerial photo
No photo
 
Sectional chart

 
Airport distance calculator
Flying to Ragtime Aerodrome? Find the distance to fly.

From to 09OK

Sunrise and sunset
Times for 02-Dec-2022
 Local
(UTC-6)
 Zulu
(UTC)
Morning civil twilight06:5012:50
Sunrise07:1813:18
Sunset17:0723:07
Evening civil twilight17:3623:36

Current date and time
Zulu (UTC)  02-Dec-2022 17:52:43
Local (UTC-6)  02-Dec-2022 11:52:43
 
METAR
KTUL 
9nm S 
021653Z 19019G31KT 10SM OVC015 12/08 A2993 RMK AO2 PK WND 17034/1558 SLP134 T01220083
KOWP 
18nm SW 
021735Z AUTO 20011G18KT 10SM OVC010 12/10 A2994 RMK AO2 T01230096
KGCM 
19nm E 
021735Z AUTO 20018G26KT 10SM OVC014 12/09 A2992 RMK AO2
KRVS 
19nm S 
021653Z 20015G28KT 10SM OVC014 12/08 A2993 RMK AO2 PK WND 20030/1633 SLP140 T01170078
TAF
KTUL 
9nm S 
021121Z 0212/0312 18015G25KT P6SM OVC025 FM021600 20023G37KT P6SM OVC015 FM022000 20022G34KT P6SM BKN040 FM030100 20010G21KT P6SM BKN250 FM030300 25014KT P6SM BKN250 FM030500 36022G32KT P6SM BKN250 FM031000 35015G23KT P6SM SCT250
KRVS 
19nm S 
021121Z 0212/0312 18013G22KT P6SM OVC025 FM021600 20020G34KT P6SM OVC015 FM022000 20019G30KT P6SM BKN040 FM030100 20010G17KT P6SM BKN250 FM030300 25011KT P6SM BKN250 FM030500 36020G30KT P6SM BKN250 FM031000 35013G21KT P6SM SCT250
NOTAMs
Click for the latest NOTAMs
NOTAMs are issued by the DoD/FAA and will open in a separate window not controlled by AirNav.

 

 
 

Would you like to see your business listed on this page?

 If your business provides an interesting product or service to pilots, flight crews, aircraft, or users of the Ragtime Aerodrome, you should consider listing it here.  To start the listing process, click on the button below
 
Add a business
 

Other Pages about Ragtime Aerodrome

Update a link
 
Copyright © AirNav, LLC. All rights reserved. Privacy Policy  Contact